sensor_id;sensor_type;location;lat;lon;timestamp;pressure;altitude;pressure_sealevel;temperature;humidity
49827;BME280;35715;51.570;6.036;2022-09-09T00:04:32;100670.81;;;16.56;79.87
49827;BME280;35715;51.570;6.036;2022-09-09T00:07:12;100679.44;;;16.55;79.52
49827;BME280;35715;51.570;6.036;2022-09-09T00:09:56;100678.56;;;16.54;79.19
49827;BME280;35715;51.570;6.036;2022-09-09T00:15:21;100673.28;;;16.53;79.71
49827;BME280;35715;51.570;6.036;2022-09-09T00:17:53;100676.78;;;16.53;80.06
49827;BME280;35715;51.570;6.036;2022-09-09T00:20:37;100672.28;;;16.49;79.90
49827;BME280;35715;51.570;6.036;2022-09-09T00:23:14;100668.78;;;16.48;80.59
49827;BME280;35715;51.570;6.036;2022-09-09T00:28:50;100664.47;;;16.49;81.35
49827;BME280;35715;51.570;6.036;2022-09-09T00:31:26;100662.94;;;16.54;80.97
49827;BME280;35715;51.570;6.036;2022-09-09T00:33:53;100657.91;;;16.59;80.67
49827;BME280;35715;51.570;6.036;2022-09-09T00:36:22;100663.94;;;16.58;80.11
49827;BME280;35715;51.570;6.036;2022-09-09T00:39:01;100659.50;;;16.55;80.65
49827;BME280;35715;51.570;6.036;2022-09-09T00:44:30;100666.97;;;16.46;80.42
49827;BME280;35715;51.570;6.036;2022-09-09T00:47:09;100661.38;;;16.37;81.16
49827;BME280;35715;51.570;6.036;2022-09-09T00:50:00;100661.09;;;16.30;81.40
49827;BME280;35715;51.570;6.036;2022-09-09T00:52:30;100662.88;;;16.31;81.85
49827;BME280;35715;51.570;6.036;2022-09-09T00:55:13;100662.00;;;16.31;81.70
49827;BME280;35715;51.570;6.036;2022-09-09T00:57:40;100668.16;;;16.33;81.96
49827;BME280;35715;51.570;6.036;2022-09-09T01:11:05;100656.78;;;16.31;82.14
49827;BME280;35715;51.570;6.036;2022-09-09T01:13:35;100651.59;;;16.31;81.54
49827;BME280;35715;51.570;6.036;2022-09-09T01:16:08;100649.72;;;16.28;81.73
49827;BME280;35715;51.570;6.036;2022-09-09T01:18:46;100654.13;;;16.29;82.34
49827;BME280;35715;51.570;6.036;2022-09-09T01:24:38;100648.22;;;16.12;82.06
49827;BME280;35715;51.570;6.036;2022-09-09T01:27:06;100649.97;;;16.13;82.53
49827;BME280;35715;51.570;6.036;2022-09-09T01:29:34;100644.72;;;16.12;82.69
49827;BME280;35715;51.570;6.036;2022-09-09T01:32:02;100643.97;;;16.14;82.62
49827;BME280;35715;51.570;6.036;2022-09-09T01:34:33;100642.91;;;16.09;82.65
49827;BME280;35715;51.570;6.036;2022-09-09T01:37:03;100648.03;;;16.08;83.36
49827;BME280;35715;51.570;6.036;2022-09-09T01:39:37;100653.16;;;16.06;82.86
49827;BME280;35715;51.570;6.036;2022-09-09T01:42:06;100646.81;;;16.00;82.80
49827;BME280;35715;51.570;6.036;2022-09-09T01:44:34;100646.69;;;15.96;83.23
49827;BME280;35715;51.570;6.036;2022-09-09T01:46:59;100647.44;;;15.94;83.20
49827;BME280;35715;51.570;6.036;2022-09-09T01:49:25;100640.59;;;15.96;82.91
49827;BME280;35715;51.570;6.036;2022-09-09T01:51:53;100645.59;;;15.91;83.05
49827;BME280;35715;51.570;6.036;2022-09-09T01:54:20;100646.28;;;15.87;83.11
49827;BME280;35715;51.570;6.036;2022-09-09T01:57:07;100645.97;;;15.79;83.32
49827;BME280;35715;51.570;6.036;2022-09-09T02:02:24;100643.34;;;15.79;83.51
49827;BME280;35715;51.570;6.036;2022-09-09T02:04:58;100642.28;;;15.76;83.32
49827;BME280;35715;51.570;6.036;2022-09-09T02:07:42;100649.81;;;15.70;84.30
49827;BME280;35715;51.570;6.036;2022-09-09T02:10:14;100649.63;;;15.65;84.47
49827;BME280;35715;51.570;6.036;2022-09-09T02:12:45;100645.41;;;15.67;84.85
49827;BME280;35715;51.570;6.036;2022-09-09T02:15:19;100638.34;;;15.65;84.70
49827;BME280;35715;51.570;6.036;2022-09-09T02:17:46;100640.06;;;15.64;84.83
49827;BME280;35715;51.570;6.036;2022-09-09T02:20:19;100635.66;;;15.63;85.29
49827;BME280;35715;51.570;6.036;2022-09-09T02:22:47;100634.72;;;15.61;85.31
49827;BME280;35715;51.570;6.036;2022-09-09T02:25:17;100630.28;;;15.58;85.88
49827;BME280;35715;51.570;6.036;2022-09-09T02:27:45;100626.84;;;15.59;86.05
49827;BME280;35715;51.570;6.036;2022-09-09T02:30:16;100631.34;;;15.64;86.31
49827;BME280;35715;51.570;6.036;2022-09-09T02:32:43;100628.88;;;15.67;86.01
49827;BME280;35715;51.570;6.036;2022-09-09T02:35:13;100628.06;;;15.68;85.83
49827;BME280;35715;51.570;6.036;2022-09-09T02:37:41;100620.34;;;15.69;86.18
49827;BME280;35715;51.570;6.036;2022-09-09T02:40:10;100622.88;;;15.68;86.19
49827;BME280;35715;51.570;6.036;2022-09-09T02:42:40;100619.44;;;15.69;86.16
49827;BME280;35715;51.570;6.036;2022-09-09T02:45:07;100623.75;;;15.68;86.26
49827;BME280;35715;51.570;6.036;2022-09-09T02:50:32;100613.91;;;15.61;86.47
49827;BME280;35715;51.570;6.036;2022-09-09T02:55:58;100626.16;;;15.64;87.34
49827;BME280;35715;51.570;6.036;2022-09-09T02:58:17;100625.28;;;15.63;87.20
49827;BME280;35715;51.570;6.036;2022-09-09T03:00:52;100625.13;;;15.60;87.26
49827;BME280;35715;51.570;6.036;2022-09-09T03:03:19;100632.25;;;15.64;87.38
49827;BME280;35715;51.570;6.036;2022-09-09T03:05:45;100627.94;;;15.65;87.59
49827;BME280;35715;51.570;6.036;2022-09-09T03:08:11;100623.75;;;15.68;87.77
49827;BME280;35715;51.570;6.036;2022-09-09T03:10:40;100629.06;;;15.71;87.77
49827;BME280;35715;51.570;6.036;2022-09-09T03:13:05;100625.66;;;15.72;87.67
49827;BME280;35715;51.570;6.036;2022-09-09T03:15:32;100628.47;;;15.77;87.42
49827;BME280;35715;51.570;6.036;2022-09-09T03:17:58;100627.59;;;15.76;87.33
49827;BME280;35715;51.570;6.036;2022-09-09T03:20:25;100624.06;;;15.76;87.29
49827;BME280;35715;51.570;6.036;2022-09-09T03:22:52;100630.19;;;15.76;87.66
49827;BME280;35715;51.570;6.036;2022-09-09T03:25:18;100630.19;;;15.76;87.56
49827;BME280;35715;51.570;6.036;2022-09-09T03:27:46;100627.00;;;15.82;87.85
49827;BME280;35715;51.570;6.036;2022-09-09T03:30:23;100621.78;;;15.82;88.03
49827;BME280;35715;51.570;6.036;2022-09-09T03:32:49;100619.38;;;15.87;87.84
49827;BME280;35715;51.570;6.036;2022-09-09T03:35:14;100625.66;;;15.92;87.68
49827;BME280;35715;51.570;6.036;2022-09-09T03:37:41;100630.25;;;15.98;87.21
49827;BME280;35715;51.570;6.036;2022-09-09T03:40:08;100618.94;;;15.97;87.25
49827;BME280;35715;51.570;6.036;2022-09-09T03:42:35;100623.31;;;15.98;87.45
49827;BME280;35715;51.570;6.036;2022-09-09T03:45:03;100623.25;;;15.96;87.87
49827;BME280;35715;51.570;6.036;2022-09-09T03:47:28;100630.31;;;15.99;87.65
49827;BME280;35715;51.570;6.036;2022-09-09T03:49:56;100632.78;;;15.96;87.44
49827;BME280;35715;51.570;6.036;2022-09-09T03:52:21;100633.59;;;15.95;88.24
49827;BME280;35715;51.570;6.036;2022-09-09T03:54:50;100627.59;;;15.96;87.81
49827;BME280;35715;51.570;6.036;2022-09-09T03:57:16;100631.06;;;15.96;87.91
49827;BME280;35715;51.570;6.036;2022-09-09T03:59:45;100640.59;;;15.96;87.90
49827;BME280;35715;51.570;6.036;2022-09-09T04:02:10;100633.66;;;15.96;87.96
49827;BME280;35715;51.570;6.036;2022-09-09T04:04:36;100635.44;;;15.98;88.05
49827;BME280;35715;51.570;6.036;2022-09-09T04:07:01;100634.59;;;15.99;88.04
49827;BME280;35715;51.570;6.036;2022-09-09T04:09:35;100633.91;;;16.03;88.25
49827;BME280;35715;51.570;6.036;2022-09-09T04:12:01;100638.31;;;16.04;87.76
49827;BME280;35715;51.570;6.036;2022-09-09T04:14:26;100633.03;;;16.02;88.52
49827;BME280;35715;51.570;6.036;2022-09-09T04:16:54;100633.91;;;16.03;88.53
49827;BME280;35715;51.570;6.036;2022-09-09T04:19:19;100637.41;;;16.03;88.69
49827;BME280;35715;51.570;6.036;2022-09-09T04:21:44;100626.13;;;16.03;88.58
49827;BME280;35715;51.570;6.036;2022-09-09T04:24:10;100625.22;;;16.02;88.72
49827;BME280;35715;51.570;6.036;2022-09-09T04:26:36;100621.72;;;16.02;88.69
49827;BME280;35715;51.570;6.036;2022-09-09T04:29:02;100619.91;;;15.99;88.92
49827;BME280;35715;51.570;6.036;2022-09-09T04:31:28;100612.16;;;16.01;89.08
49827;BME280;35715;51.570;6.036;2022-09-09T04:33:54;100619.06;;;16.00;89.42
49827;BME280;35715;51.570;6.036;2022-09-09T04:36:19;100619.13;;;16.02;89.99
49827;BME280;35715;51.570;6.036;2022-09-09T04:38:45;100616.53;;;16.02;89.87
49827;BME280;35715;51.570;6.036;2022-09-09T04:41:42;100606.75;;;15.96;90.37
49827;BME280;35715;51.570;6.036;2022-09-09T04:44:07;100618.25;;;16.01;90.15
49827;BME280;35715;51.570;6.036;2022-09-09T04:46:33;100619.97;;;16.01;90.29
49827;BME280;35715;51.570;6.036;2022-09-09T04:48:59;100612.16;;;16.01;90.45
49827;BME280;35715;51.570;6.036;2022-09-09T04:52:03;100609.63;;;16.02;90.32
49827;BME280;35715;51.570;6.036;2022-09-09T04:54:29;100607.03;;;16.02;90.44
49827;BME280;35715;51.570;6.036;2022-09-09T04:56:55;100613.97;;;16.03;90.71
49827;BME280;35715;51.570;6.036;2022-09-09T04:59:20;100607.16;;;16.05;90.70
49827;BME280;35715;51.570;6.036;2022-09-09T05:01:47;100604.59;;;16.07;90.17
49827;BME280;35715;51.570;6.036;2022-09-09T05:04:12;100613.16;;;16.04;90.45
49827;BME280;35715;51.570;6.036;2022-09-09T05:06:38;100603.78;;;16.08;90.48
49827;BME280;35715;51.570;6.036;2022-09-09T05:09:03;100603.78;;;16.08;90.21
49827;BME280;35715;51.570;6.036;2022-09-09T05:11:36;100602.00;;;16.07;90.55
49827;BME280;35715;51.570;6.036;2022-09-09T05:14:02;100595.13;;;16.09;90.66
49827;BME280;35715;51.570;6.036;2022-09-09T05:16:28;100595.19;;;16.10;90.73
49827;BME280;35715;51.570;6.036;2022-09-09T05:18:54;100590.84;;;16.09;90.83
49827;BME280;35715;51.570;6.036;2022-09-09T05:21:23;100586.56;;;16.11;90.52
49827;BME280;35715;51.570;6.036;2022-09-09T05:23:51;100591.72;;;16.10;90.22
49827;BME280;35715;51.570;6.036;2022-09-09T05:26:19;100597.75;;;16.09;90.15
49827;BME280;35715;51.570;6.036;2022-09-09T05:28:45;100596.88;;;16.08;90.36
49827;BME280;35715;51.570;6.036;2022-09-09T05:31:20;100596.78;;;16.07;90.43
49827;BME280;35715;51.570;6.036;2022-09-09T05:33:47;100594.88;;;16.03;90.23
49827;BME280;35715;51.570;6.036;2022-09-09T05:36:18;100587.00;;;16.01;90.65
49827;BME280;35715;51.570;6.036;2022-09-09T05:38:44;100598.09;;;15.97;90.85
49827;BME280;35715;51.570;6.036;2022-09-09T05:41:11;100598.09;;;15.97;91.16
49827;BME280;35715;51.570;6.036;2022-09-09T05:43:37;100598.19;;;15.99;90.77
49827;BME280;35715;51.570;6.036;2022-09-09T05:46:11;100594.75;;;16.00;90.88
49827;BME280;35715;51.570;6.036;2022-09-09T05:48:42;100602.56;;;16.00;90.97
49827;BME280;35715;51.570;6.036;2022-09-09T05:51:11;100599.44;;;15.87;92.13
49827;BME280;35715;51.570;6.036;2022-09-09T05:53:38;100605.09;;;15.98;91.20
49827;BME280;35715;51.570;6.036;2022-09-09T05:56:12;100603.56;;;16.03;91.38
49827;BME280;35715;51.570;6.036;2022-09-09T05:58:39;100606.28;;;16.06;91.28
49827;BME280;35715;51.570;6.036;2022-09-09T06:01:28;100609.94;;;16.10;90.86
49827;BME280;35715;51.570;6.036;2022-09-09T06:03:54;100605.66;;;16.12;90.83
49827;BME280;35715;51.570;6.036;2022-09-09T06:06:22;100603.31;;;16.18;91.04
49827;BME280;35715;51.570;6.036;2022-09-09T06:08:54;100608.66;;;16.21;91.21
49827;BME280;35715;51.570;6.036;2022-09-09T06:11:22;100610.69;;;16.28;91.03
49827;BME280;35715;51.570;6.036;2022-09-09T06:13:49;100605.72;;;16.35;90.34
49827;BME280;35715;51.570;6.036;2022-09-09T06:16:17;100605.97;;;16.41;90.57
49827;BME280;35715;51.570;6.036;2022-09-09T06:18:43;100615.38;;;16.37;90.24
49827;BME280;35715;51.570;6.036;2022-09-09T06:21:15;100621.41;;;16.36;90.66
49827;BME280;35715;51.570;6.036;2022-09-09T06:23:42;100618.81;;;16.36;90.12
49827;BME280;35715;51.570;6.036;2022-09-09T06:26:20;100624.84;;;16.35;90.69
49827;BME280;35715;51.570;6.036;2022-09-09T06:28:48;100630.00;;;16.34;90.58
49827;BME280;35715;51.570;6.036;2022-09-09T06:31:22;100630.88;;;16.34;90.37
49827;BME280;35715;51.570;6.036;2022-09-09T06:33:50;100617.16;;;16.38;90.17
49827;BME280;35715;51.570;6.036;2022-09-09T06:36:21;100619.91;;;16.41;90.50
49827;BME280;35715;51.570;6.036;2022-09-09T06:38:47;100620.03;;;16.44;90.34
49827;BME280;35715;51.570;6.036;2022-09-09T06:41:18;100621.50;;;16.60;90.08
49827;BME280;35715;51.570;6.036;2022-09-09T06:43:45;100623.34;;;16.85;88.86
49827;BME280;35715;51.570;6.036;2022-09-09T06:46:16;100622.22;;;17.48;86.03
49827;BME280;35715;51.570;6.036;2022-09-09T06:48:46;100617.91;;;18.24;82.05
49827;BME280;35715;51.570;6.036;2022-09-09T06:51:22;100608.75;;;18.93;80.26
49827;BME280;35715;51.570;6.036;2022-09-09T06:53:53;100607.00;;;19.55;77.23
49827;BME280;35715;51.570;6.036;2022-09-09T06:58:49;100614.16;;;19.94;73.26
49827;BME280;35715;51.570;6.036;2022-09-09T07:01:25;100607.28;;;20.32;70.49
49827;BME280;35715;51.570;6.036;2022-09-09T07:03:53;100620.38;;;20.69;69.73
49827;BME280;35715;51.570;6.036;2022-09-09T07:06:25;100624.50;;;20.97;66.44
49827;BME280;35715;51.570;6.036;2022-09-09T07:08:52;100613.97;;;21.38;66.72
49827;BME280;35715;51.570;6.036;2022-09-09T07:11:33;100612.09;;;21.77;64.08
49827;BME280;35715;51.570;6.036;2022-09-09T07:14:00;100612.88;;;21.70;64.07
49827;BME280;35715;51.570;6.036;2022-09-09T07:16:26;100616.09;;;22.05;63.24
49827;BME280;35715;51.570;6.036;2022-09-09T07:18:56;100613.47;;;22.05;62.39
49827;BME280;35715;51.570;6.036;2022-09-09T07:21:48;100608.00;;;22.45;59.98
49827;BME280;35715;51.570;6.036;2022-09-09T07:24:14;100613.66;;;22.71;59.86
49827;BME280;35715;51.570;6.036;2022-09-09T07:26:40;100608.84;;;23.05;58.72
49827;BME280;35715;51.570;6.036;2022-09-09T07:29:06;100613.78;;;23.49;58.04
49827;BME280;35715;51.570;6.036;2022-09-09T07:31:41;100611.09;;;23.43;54.79
49827;BME280;35715;51.570;6.036;2022-09-09T07:34:07;100607.72;;;23.58;56.66
49827;BME280;35715;51.570;6.036;2022-09-09T07:36:35;100610.91;;;24.12;55.19
49827;BME280;35715;51.570;6.036;2022-09-09T07:39:03;100605.75;;;24.26;53.81
49827;BME280;35715;51.570;6.036;2022-09-09T07:41:40;100599.88;;;24.64;52.87
49827;BME280;35715;51.570;6.036;2022-09-09T07:44:18;100607.16;;;25.19;51.48
49827;BME280;35715;51.570;6.036;2022-09-09T07:46:50;100604.66;;;25.38;50.96
49827;BME280;35715;51.570;6.036;2022-09-09T07:49:42;100610.63;;;23.84;51.60
49827;BME280;35715;51.570;6.036;2022-09-09T07:52:07;100600.91;;;24.91;50.66
49827;BME280;35715;51.570;6.036;2022-09-09T07:54:33;100609.13;;;25.93;49.42
49827;BME280;35715;51.570;6.036;2022-09-09T07:56:58;100611.78;;;26.50;47.35
49827;BME280;35715;51.570;6.036;2022-09-09T07:59:24;100610.06;;;26.10;47.16
49827;BME280;35715;51.570;6.036;2022-09-09T08:01:50;100618.84;;;26.37;46.68
49827;BME280;35715;51.570;6.036;2022-09-09T08:04:19;100610.00;;;26.70;44.83
49827;BME280;35715;51.570;6.036;2022-09-09T08:06:48;100603.81;;;26.79;45.72
49827;BME280;35715;51.570;6.036;2022-09-09T08:09:14;100610.88;;;28.33;42.40
49827;BME280;35715;51.570;6.036;2022-09-09T08:11:40;100618.25;;;27.93;43.42
49827;BME280;35715;51.570;6.036;2022-09-09T08:14:07;100616.16;;;26.57;44.68
49827;BME280;35715;51.570;6.036;2022-09-09T08:16:35;100635.56;;;25.71;46.89
49827;BME280;35715;51.570;6.036;2022-09-09T08:19:02;100630.69;;;24.68;48.97
49827;BME280;35715;51.570;6.036;2022-09-09T08:21:31;100627.28;;;24.88;49.17
49827;BME280;35715;51.570;6.036;2022-09-09T08:23:58;100636.72;;;24.56;48.68
49827;BME280;35715;51.570;6.036;2022-09-09T08:26:31;100636.56;;;23.46;51.43
49827;BME280;35715;51.570;6.036;2022-09-09T08:28:58;100626.28;;;22.97;53.96
49827;BME280;35715;51.570;6.036;2022-09-09T08:31:39;100642.03;;;22.36;54.46
49827;BME280;35715;51.570;6.036;2022-09-09T08:34:04;100646.63;;;21.97;56.61
49827;BME280;35715;51.570;6.036;2022-09-09T08:36:32;100648.28;;;21.93;56.12
49827;BME280;35715;51.570;6.036;2022-09-09T08:38:59;100639.78;;;21.59;56.67
49827;BME280;35715;51.570;6.036;2022-09-09T08:50:19;100654.63;;;21.16;58.49
49827;BME280;35715;51.570;6.036;2022-09-09T09:07:01;100655.59;;;21.61;57.88
49827;BME280;35715;51.570;6.036;2022-09-09T09:11:53;100660.78;;;20.79;59.56
49827;BME280;35715;51.570;6.036;2022-09-09T09:14:24;100659.03;;;20.78;60.18
49827;BME280;35715;51.570;6.036;2022-09-09T09:19:24;100650.69;;;20.96;59.06
49827;BME280;35715;51.570;6.036;2022-09-09T09:21:59;100659.56;;;21.02;57.67
49827;BME280;35715;51.570;6.036;2022-09-09T09:24:42;100652.00;;;21.16;58.29
49827;BME280;35715;51.570;6.036;2022-09-09T09:27:15;100653.50;;;21.46;58.11
49827;BME280;35715;51.570;6.036;2022-09-09T09:29:58;100657.03;;;21.91;56.79
49827;BME280;35715;51.570;6.036;2022-09-09T09:32:26;100665.00;;;22.46;54.92
49827;BME280;35715;51.570;6.036;2022-09-09T09:34:56;100660.44;;;21.87;56.23
49827;BME280;35715;51.570;6.036;2022-09-09T09:37:27;100673.94;;;21.59;56.42
49827;BME280;35715;51.570;6.036;2022-09-09T09:40:20;100660.06;;;21.25;57.48
49827;BME280;35715;51.570;6.036;2022-09-09T09:42:57;100664.81;;;21.02;57.65
49827;BME280;35715;51.570;6.036;2022-09-09T09:45:34;100654.84;;;20.86;58.43
49827;BME280;35715;51.570;6.036;2022-09-09T09:48:04;100672.47;;;20.91;59.02
49827;BME280;35715;51.570;6.036;2022-09-09T09:50:31;100671.50;;;20.53;59.61
49827;BME280;35715;51.570;6.036;2022-09-09T09:52:59;100665.50;;;20.57;59.87
49827;BME280;35715;51.570;6.036;2022-09-09T09:55:26;100662.94;;;20.60;59.90
49827;BME280;35715;51.570;6.036;2022-09-09T09:58:01;100665.44;;;20.54;59.68
49827;BME280;35715;51.570;6.036;2022-09-09T10:00:28;100662.63;;;20.46;60.50
49827;BME280;35715;51.570;6.036;2022-09-09T10:02:54;100663.56;;;20.50;60.19
49827;BME280;35715;51.570;6.036;2022-09-09T10:05:30;100666.88;;;20.41;60.08
49827;BME280;35715;51.570;6.036;2022-09-09T10:13:19;100661.03;;;20.53;60.94
49827;BME280;35715;51.570;6.036;2022-09-09T10:18:33;100661.38;;;20.65;60.61
49827;BME280;35715;51.570;6.036;2022-09-09T10:21:06;100657.19;;;20.38;61.02
49827;BME280;35715;51.570;6.036;2022-09-09T10:32:02;100665.13;;;20.42;60.46
49827;BME280;35715;51.570;6.036;2022-09-09T10:34:49;100666.50;;;20.27;60.65
49827;BME280;35715;51.570;6.036;2022-09-09T10:43:39;100663.78;;;20.23;61.65
49827;BME280;35715;51.570;6.036;2022-09-09T10:52:52;100661.53;;;21.11;59.37
49827;BME280;35715;51.570;6.036;2022-09-09T10:55:31;100659.00;;;21.16;59.43
49827;BME280;35715;51.570;6.036;2022-09-09T10:58:03;100647.63;;;21.15;58.62
49827;BME280;35715;51.570;6.036;2022-09-09T11:00:54;100658.81;;;21.06;58.54
49827;BME280;35715;51.570;6.036;2022-09-09T11:03:24;100663.16;;;21.06;58.68
49827;BME280;35715;51.570;6.036;2022-09-09T11:06:01;100654.91;;;20.89;59.04
49827;BME280;35715;51.570;6.036;2022-09-09T11:08:30;100663.38;;;20.77;59.82
49827;BME280;35715;51.570;6.036;2022-09-09T11:11:19;100658.94;;;20.73;60.22
49827;BME280;35715;51.570;6.036;2022-09-09T11:14:14;100664.78;;;20.63;59.73
49827;BME280;35715;51.570;6.036;2022-09-09T11:17:02;100663.81;;;20.59;62.02
49827;BME280;35715;51.570;6.036;2022-09-09T11:19:35;100669.06;;;20.24;63.23
49827;BME280;35715;51.570;6.036;2022-09-09T11:22:14;100671.88;;;19.98;65.78
49827;BME280;35715;51.570;6.036;2022-09-09T11:24:45;100672.91;;;20.03;67.70
49827;BME280;35715;51.570;6.036;2022-09-09T11:27:26;100668.59;;;20.06;67.18
49827;BME280;35715;51.570;6.036;2022-09-09T11:30:29;100663.72;;;19.86;66.10
49827;BME280;35715;51.570;6.036;2022-09-09T11:38:47;100675.22;;;19.00;71.05
49827;BME280;35715;51.570;6.036;2022-09-09T11:41:33;100696.66;;;18.62;73.40
49827;BME280;35715;51.570;6.036;2022-09-09T11:43:59;100693.25;;;18.39;74.94
49827;BME280;35715;51.570;6.036;2022-09-09T11:46:34;100687.56;;;18.25;79.03
49827;BME280;35715;51.570;6.036;2022-09-09T11:49:04;100685.91;;;18.27;78.53
49827;BME280;35715;51.570;6.036;2022-09-09T11:51:33;100685.97;;;18.29;79.80
49827;BME280;35715;51.570;6.036;2022-09-09T11:54:02;100684.84;;;18.22;80.31
49827;BME280;35715;51.570;6.036;2022-09-09T11:56:46;100690.13;;;18.24;80.11
49827;BME280;35715;51.570;6.036;2022-09-09T12:02:26;100681.81;;;18.36;80.89
49827;BME280;35715;51.570;6.036;2022-09-09T12:05:02;100685.41;;;18.39;82.22
49827;BME280;35715;51.570;6.036;2022-09-09T12:13:15;100678.38;;;18.90;80.46
49827;BME280;35715;51.570;6.036;2022-09-09T12:16:02;100670.78;;;19.28;80.55
49827;BME280;35715;51.570;6.036;2022-09-09T12:18:38;100678.59;;;20.20;76.95
49827;BME280;35715;51.570;6.036;2022-09-09T12:24:05;100672.53;;;21.36;73.75
49827;BME280;35715;51.570;6.036;2022-09-09T12:26:38;100663.25;;;21.50;70.64
49827;BME280;35715;51.570;6.036;2022-09-09T12:31:53;100679.78;;;20.67;71.37
49827;BME280;35715;51.570;6.036;2022-09-09T12:34:47;100658.84;;;20.33;71.98
49827;BME280;35715;51.570;6.036;2022-09-09T12:37:26;100668.53;;;20.37;71.83
49827;BME280;35715;51.570;6.036;2022-09-09T12:40:03;100662.25;;;20.31;71.87
49827;BME280;35715;51.570;6.036;2022-09-09T12:42:29;100664.59;;;20.55;72.35
49827;BME280;35715;51.570;6.036;2022-09-09T12:45:00;100650.44;;;20.83;72.87
49827;BME280;35715;51.570;6.036;2022-09-09T12:47:50;100656.97;;;21.02;71.67
49827;BME280;35715;51.570;6.036;2022-09-09T12:50:25;100652.13;;;20.81;70.02
49827;BME280;35715;51.570;6.036;2022-09-09T12:52:53;100655.28;;;20.68;71.08
49827;BME280;35715;51.570;6.036;2022-09-09T12:55:23;100641.91;;;20.57;70.44
49827;BME280;35715;51.570;6.036;2022-09-09T12:57:50;100650.22;;;20.76;71.15
49827;BME280;35715;51.570;6.036;2022-09-09T13:00:36;100642.44;;;20.79;70.54
49827;BME280;35715;51.570;6.036;2022-09-09T13:03:13;100639.03;;;20.83;70.67
49827;BME280;35715;51.570;6.036;2022-09-09T13:05:41;100636.59;;;20.90;71.09
49827;BME280;35715;51.570;6.036;2022-09-09T13:08:11;100635.00;;;20.97;69.04
49827;BME280;35715;51.570;6.036;2022-09-09T13:11:13;100637.59;;;20.96;68.43
49827;BME280;35715;51.570;6.036;2022-09-09T13:13:42;100637.78;;;21.05;68.59
49827;BME280;35715;51.570;6.036;2022-09-09T13:16:31;100633.84;;;20.86;68.03
49827;BME280;35715;51.570;6.036;2022-09-09T13:19:07;100646.88;;;20.81;68.30
49827;BME280;35715;51.570;6.036;2022-09-09T13:21:38;100634.00;;;20.55;67.84
49827;BME280;35715;51.570;6.036;2022-09-09T13:24:29;100620.34;;;20.67;68.99
49827;BME280;35715;51.570;6.036;2022-09-09T13:29:21;100616.31;;;20.82;68.06
49827;BME280;35715;51.570;6.036;2022-09-09T13:31:47;100613.91;;;20.92;68.80
49827;BME280;35715;51.570;6.036;2022-09-09T13:36:59;100619.16;;;20.92;68.32
49827;BME280;35715;51.570;6.036;2022-09-09T13:39:36;100606.59;;;20.78;66.56
49827;BME280;35715;51.570;6.036;2022-09-09T13:42:03;100606.69;;;20.82;66.98
49827;BME280;35715;51.570;6.036;2022-09-09T13:44:32;100606.75;;;20.85;67.61
49827;BME280;35715;51.570;6.036;2022-09-09T13:47:16;100605.09;;;20.90;66.40
49827;BME280;35715;51.570;6.036;2022-09-09T13:49:47;100591.94;;;20.87;66.45
49827;BME280;35715;51.570;6.036;2022-09-09T13:52:14;100599.09;;;20.95;66.39
49827;BME280;35715;51.570;6.036;2022-09-09T13:54:42;100586.16;;;21.04;66.08
49827;BME280;35715;51.570;6.036;2022-09-09T13:57:19;100598.22;;;20.94;63.19
49827;BME280;35715;51.570;6.036;2022-09-09T13:59:46;100590.09;;;20.82;64.34
49827;BME280;35715;51.570;6.036;2022-09-09T14:02:12;100593.59;;;20.82;64.28
49827;BME280;35715;51.570;6.036;2022-09-09T14:04:37;100595.63;;;20.96;65.20
49827;BME280;35715;51.570;6.036;2022-09-09T14:07:03;100594.94;;;21.06;65.54
49827;BME280;35715;51.570;6.036;2022-09-09T14:09:28;100586.31;;;21.12;63.71
49827;BME280;35715;51.570;6.036;2022-09-09T14:11:54;100596.22;;;21.25;65.43
49827;BME280;35715;51.570;6.036;2022-09-09T14:14:22;100600.72;;;21.32;64.07
49827;BME280;35715;51.570;6.036;2022-09-09T14:16:48;100599.81;;;21.32;63.37
49827;BME280;35715;51.570;6.036;2022-09-09T14:19:13;100591.47;;;21.07;62.94
49827;BME280;35715;51.570;6.036;2022-09-09T14:21:39;100592.28;;;21.04;63.79
49827;BME280;35715;51.570;6.036;2022-09-09T14:24:04;100602.81;;;21.06;63.76
49827;BME280;35715;51.570;6.036;2022-09-09T14:26:31;100592.50;;;21.14;63.20
49827;BME280;35715;51.570;6.036;2022-09-09T14:28:56;100601.28;;;21.16;62.97
49827;BME280;35715;51.570;6.036;2022-09-09T14:31:26;100594.47;;;21.25;63.31
49827;BME280;35715;51.570;6.036;2022-09-09T14:33:51;100591.16;;;21.36;62.90
49827;BME280;35715;51.570;6.036;2022-09-09T14:36:17;100587.25;;;21.58;63.24
49827;BME280;35715;51.570;6.036;2022-09-09T14:38:46;100586.56;;;21.68;63.05
49827;BME280;35715;51.570;6.036;2022-09-09T14:41:15;100595.38;;;21.72;62.44
49827;BME280;35715;51.570;6.036;2022-09-09T14:43:45;100590.97;;;21.71;62.88
49827;BME280;35715;51.570;6.036;2022-09-09T14:46:13;100584.91;;;21.73;62.88
49827;BME280;35715;51.570;6.036;2022-09-09T14:48:39;100580.69;;;21.83;61.84
49827;BME280;35715;51.570;6.036;2022-09-09T14:51:13;100583.47;;;21.91;62.17
49827;BME280;35715;51.570;6.036;2022-09-09T14:53:41;100584.25;;;21.87;62.25
49827;BME280;35715;51.570;6.036;2022-09-09T14:56:08;100583.22;;;21.78;62.56
49827;BME280;35715;51.570;6.036;2022-09-09T14:58:34;100581.75;;;21.93;63.33
49827;BME280;35715;51.570;6.036;2022-09-09T15:01:08;100580.28;;;22.12;62.49
49827;BME280;35715;51.570;6.036;2022-09-09T15:03:38;100575.78;;;22.03;62.65
49827;BME280;35715;51.570;6.036;2022-09-09T15:06:06;100572.91;;;21.88;61.21
49827;BME280;35715;51.570;6.036;2022-09-09T15:08:31;100577.03;;;21.73;61.50
49827;BME280;35715;51.570;6.036;2022-09-09T15:11:09;100566.38;;;21.66;61.92